sensor_id;sensor_type;location;lat;lon;timestamp;temperature;humidity
28677;DHT22;15858;48.338;11.078;2023-12-04T00:00:24;-7.50;99.90
28677;DHT22;15858;48.338;11.078;2023-12-04T00:02:51;-7.50;99.90
28677;DHT22;15858;48.338;11.078;2023-12-04T00:05:17;-7.50;99.90
28677;DHT22;15858;48.338;11.078;2023-12-04T00:07:44;-7.60;99.90
28677;DHT22;15858;48.338;11.078;2023-12-04T00:10:11;-7.50;99.90
28677;DHT22;15858;48.338;11.078;2023-12-04T00:12:37;-7.50;99.90
28677;DHT22;15858;48.338;11.078;2023-12-04T00:15:04;-7.60;99.90
28677;DHT22;15858;48.338;11.078;2023-12-04T00:17:31;-7.70;99.90
28677;DHT22;15858;48.338;11.078;2023-12-04T00:19:58;-7.80;99.90
28677;DHT22;15858;48.338;11.078;2023-12-04T00:22:25;-7.90;99.90
28677;DHT22;15858;48.338;11.078;2023-12-04T00:24:51;-7.90;99.90
28677;DHT22;15858;48.338;11.078;2023-12-04T00:27:18;-7.90;99.90
28677;DHT22;15858;48.338;11.078;2023-12-04T00:29:44;-7.90;99.90
28677;DHT22;15858;48.338;11.078;2023-12-04T00:32:11;-8.10;99.90
28677;DHT22;15858;48.338;11.078;2023-12-04T00:34:38;-8.00;99.90
28677;DHT22;15858;48.338;11.078;2023-12-04T00:37:04;-8.00;99.90
28677;DHT22;15858;48.338;11.078;2023-12-04T00:39:31;-8.00;99.90
28677;DHT22;15858;48.338;11.078;2023-12-04T00:41:58;-8.00;99.90
28677;DHT22;15858;48.338;11.078;2023-12-04T00:44:25;-8.00;99.90
28677;DHT22;15858;48.338;11.078;2023-12-04T00:46:51;-8.10;99.90
28677;DHT22;15858;48.338;11.078;2023-12-04T00:49:18;-8.10;99.90
28677;DHT22;15858;48.338;11.078;2023-12-04T00:51:45;-8.10;99.90
28677;DHT22;15858;48.338;11.078;2023-12-04T00:54:12;-8.10;99.90
28677;DHT22;15858;48.338;11.078;2023-12-04T00:56:39;-8.20;99.90
28677;DHT22;15858;48.338;11.078;2023-12-04T00:59:08;-8.20;99.90
28677;DHT22;15858;48.338;11.078;2023-12-04T01:01:38;-8.20;99.90
28677;DHT22;15858;48.338;11.078;2023-12-04T01:04:04;-8.20;99.90
28677;DHT22;15858;48.338;11.078;2023-12-04T01:06:31;-8.10;99.90
28677;DHT22;15858;48.338;11.078;2023-12-04T01:08:58;-8.20;99.90
28677;DHT22;15858;48.338;11.078;2023-12-04T01:11:25;-8.20;99.90
28677;DHT22;15858;48.338;11.078;2023-12-04T01:13:51;-8.30;99.90
28677;DHT22;15858;48.338;11.078;2023-12-04T01:16:18;-8.20;99.90
28677;DHT22;15858;48.338;11.078;2023-12-04T01:18:45;-8.20;99.90
28677;DHT22;15858;48.338;11.078;2023-12-04T01:21:11;-8.20;99.90
28677;DHT22;15858;48.338;11.078;2023-12-04T01:23:38;-8.30;99.90
28677;DHT22;15858;48.338;11.078;2023-12-04T01:26:05;-8.30;99.90
28677;DHT22;15858;48.338;11.078;2023-12-04T01:28:31;-8.30;99.90
28677;DHT22;15858;48.338;11.078;2023-12-04T01:30:58;-8.30;99.90
28677;DHT22;15858;48.338;11.078;2023-12-04T01:33:25;-8.30;99.90
28677;DHT22;15858;48.338;11.078;2023-12-04T01:35:51;-8.50;99.90
28677;DHT22;15858;48.338;11.078;2023-12-04T01:38:18;-8.60;99.90
28677;DHT22;15858;48.338;11.078;2023-12-04T01:40:45;-8.60;99.90
28677;DHT22;15858;48.338;11.078;2023-12-04T01:43:11;-8.60;99.90
28677;DHT22;15858;48.338;11.078;2023-12-04T01:45:38;-8.60;99.90
28677;DHT22;15858;48.338;11.078;2023-12-04T01:48:06;-8.60;99.90
28677;DHT22;15858;48.338;11.078;2023-12-04T01:50:35;-8.50;99.90
28677;DHT22;15858;48.338;11.078;2023-12-04T01:53:02;-8.40;99.90
28677;DHT22;15858;48.338;11.078;2023-12-04T01:55:29;-8.40;99.90
28677;DHT22;15858;48.338;11.078;2023-12-04T01:57:57;-8.30;99.90
28677;DHT22;15858;48.338;11.078;2023-12-04T02:00:24;-8.30;99.90
28677;DHT22;15858;48.338;11.078;2023-12-04T02:02:51;-8.30;99.90
28677;DHT22;15858;48.338;11.078;2023-12-04T02:05:19;-8.30;99.90
28677;DHT22;15858;48.338;11.078;2023-12-04T02:07:47;-8.30;99.90
28677;DHT22;15858;48.338;11.078;2023-12-04T02:10:14;-8.20;99.90
28677;DHT22;15858;48.338;11.078;2023-12-04T02:12:41;-8.10;99.90
28677;DHT22;15858;48.338;11.078;2023-12-04T02:15:08;-8.00;99.90
28677;DHT22;15858;48.338;11.078;2023-12-04T02:17:35;-8.00;99.90
28677;DHT22;15858;48.338;11.078;2023-12-04T02:20:03;-8.10;99.90
28677;DHT22;15858;48.338;11.078;2023-12-04T02:22:30;-8.10;99.90
28677;DHT22;15858;48.338;11.078;2023-12-04T02:24:56;-8.20;99.90
28677;DHT22;15858;48.338;11.078;2023-12-04T02:27:37;-8.30;99.90
28677;DHT22;15858;48.338;11.078;2023-12-04T02:30:06;-8.40;99.90
28677;DHT22;15858;48.338;11.078;2023-12-04T02:32:37;-8.40;99.90
28677;DHT22;15858;48.338;11.078;2023-12-04T02:35:06;-8.40;99.90
28677;DHT22;15858;48.338;11.078;2023-12-04T02:37:35;-8.40;99.90
28677;DHT22;15858;48.338;11.078;2023-12-04T02:40:02;-8.40;99.90
28677;DHT22;15858;48.338;11.078;2023-12-04T02:42:29;-8.50;99.90
28677;DHT22;15858;48.338;11.078;2023-12-04T02:44:56;-8.70;99.90
28677;DHT22;15858;48.338;11.078;2023-12-04T02:47:22;-8.70;99.90
28677;DHT22;15858;48.338;11.078;2023-12-04T02:49:49;-8.60;99.90
28677;DHT22;15858;48.338;11.078;2023-12-04T02:52:16;-8.60;99.90
28677;DHT22;15858;48.338;11.078;2023-12-04T02:54:42;-8.60;99.90
28677;DHT22;15858;48.338;11.078;2023-12-04T02:57:09;-8.50;99.90
28677;DHT22;15858;48.338;11.078;2023-12-04T02:59:36;-8.60;99.90
28677;DHT22;15858;48.338;11.078;2023-12-04T03:02:03;-8.50;99.90
28677;DHT22;15858;48.338;11.078;2023-12-04T03:04:31;-8.50;99.90
28677;DHT22;15858;48.338;11.078;2023-12-04T03:06:57;-8.40;99.90
28677;DHT22;15858;48.338;11.078;2023-12-04T03:09:24;-8.30;99.90
28677;DHT22;15858;48.338;11.078;2023-12-04T03:12:11;-8.30;99.90
28677;DHT22;15858;48.338;11.078;2023-12-04T03:14:38;-8.50;99.90
28677;DHT22;15858;48.338;11.078;2023-12-04T03:17:04;-8.60;99.90
28677;DHT22;15858;48.338;11.078;2023-12-04T03:19:31;-8.60;99.90
28677;DHT22;15858;48.338;11.078;2023-12-04T03:21:57;-8.70;99.90
28677;DHT22;15858;48.338;11.078;2023-12-04T03:24:24;-8.60;99.90
28677;DHT22;15858;48.338;11.078;2023-12-04T03:26:51;-8.60;99.90
28677;DHT22;15858;48.338;11.078;2023-12-04T03:29:18;-8.60;99.90
28677;DHT22;15858;48.338;11.078;2023-12-04T03:31:44;-8.60;99.90
28677;DHT22;15858;48.338;11.078;2023-12-04T03:34:11;-8.50;99.90
28677;DHT22;15858;48.338;11.078;2023-12-04T03:36:38;-8.50;99.90
28677;DHT22;15858;48.338;11.078;2023-12-04T03:39:05;-8.40;99.90
28677;DHT22;15858;48.338;11.078;2023-12-04T03:41:31;-8.40;99.90
28677;DHT22;15858;48.338;11.078;2023-12-04T03:43:58;-8.50;99.90
28677;DHT22;15858;48.338;11.078;2023-12-04T03:46:24;-8.60;99.90
28677;DHT22;15858;48.338;11.078;2023-12-04T03:48:51;-8.70;99.90
28677;DHT22;15858;48.338;11.078;2023-12-04T03:51:18;-8.60;99.90
28677;DHT22;15858;48.338;11.078;2023-12-04T03:53:44;-8.70;99.90
28677;DHT22;15858;48.338;11.078;2023-12-04T03:56:11;-8.60;99.90
28677;DHT22;15858;48.338;11.078;2023-12-04T03:58:38;-8.70;99.90
28677;DHT22;15858;48.338;11.078;2023-12-04T04:01:04;-8.70;99.90
28677;DHT22;15858;48.338;11.078;2023-12-04T04:03:31;-8.70;99.90
28677;DHT22;15858;48.338;11.078;2023-12-04T04:05:58;-8.70;99.90
28677;DHT22;15858;48.338;11.078;2023-12-04T04:08:24;-8.70;99.90
28677;DHT22;15858;48.338;11.078;2023-12-04T04:10:51;-8.70;99.90
28677;DHT22;15858;48.338;11.078;2023-12-04T04:13:18;-8.70;99.90
28677;DHT22;15858;48.338;11.078;2023-12-04T04:15:44;-8.80;99.90
28677;DHT22;15858;48.338;11.078;2023-12-04T04:18:11;-8.80;99.90
28677;DHT22;15858;48.338;11.078;2023-12-04T04:20:38;-8.80;99.90
28677;DHT22;15858;48.338;11.078;2023-12-04T04:23:04;-8.80;99.90
28677;DHT22;15858;48.338;11.078;2023-12-04T04:25:31;-8.80;99.90
28677;DHT22;15858;48.338;11.078;2023-12-04T04:27:58;-9.00;99.90
28677;DHT22;15858;48.338;11.078;2023-12-04T04:30:24;-9.30;99.90
28677;DHT22;15858;48.338;11.078;2023-12-04T04:32:51;-9.40;99.90
28677;DHT22;15858;48.338;11.078;2023-12-04T04:35:18;-9.40;99.90
28677;DHT22;15858;48.338;11.078;2023-12-04T04:37:44;-9.40;99.90
28677;DHT22;15858;48.338;11.078;2023-12-04T04:40:13;-9.50;99.90
28677;DHT22;15858;48.338;11.078;2023-12-04T04:42:40;-9.60;99.90
28677;DHT22;15858;48.338;11.078;2023-12-04T04:45:07;-9.50;99.90
28677;DHT22;15858;48.338;11.078;2023-12-04T04:47:34;-9.70;99.90
28677;DHT22;15858;48.338;11.078;2023-12-04T04:50:01;-9.70;99.90
28677;DHT22;15858;48.338;11.078;2023-12-04T04:52:27;-9.80;99.90
28677;DHT22;15858;48.338;11.078;2023-12-04T04:54:57;-9.70;99.90
28677;DHT22;15858;48.338;11.078;2023-12-04T04:57:24;-9.80;99.90
28677;DHT22;15858;48.338;11.078;2023-12-04T04:59:51;-9.70;99.90
28677;DHT22;15858;48.338;11.078;2023-12-04T05:02:17;-9.70;99.90
28677;DHT22;15858;48.338;11.078;2023-12-04T05:04:44;-9.70;99.90
28677;DHT22;15858;48.338;11.078;2023-12-04T05:07:11;-9.80;99.90
28677;DHT22;15858;48.338;11.078;2023-12-04T05:09:37;-9.80;99.90
28677;DHT22;15858;48.338;11.078;2023-12-04T05:12:04;-9.80;99.90
28677;DHT22;15858;48.338;11.078;2023-12-04T05:14:31;-9.90;99.90
28677;DHT22;15858;48.338;11.078;2023-12-04T05:16:58;-9.80;99.90
28677;DHT22;15858;48.338;11.078;2023-12-04T05:19:24;-9.70;99.90
28677;DHT22;15858;48.338;11.078;2023-12-04T05:21:51;-9.70;99.90
28677;DHT22;15858;48.338;11.078;2023-12-04T05:24:18;-9.70;99.90
28677;DHT22;15858;48.338;11.078;2023-12-04T05:26:45;-9.70;99.90
28677;DHT22;15858;48.338;11.078;2023-12-04T05:29:11;-9.80;99.90
28677;DHT22;15858;48.338;11.078;2023-12-04T05:31:38;-9.90;99.90
28677;DHT22;15858;48.338;11.078;2023-12-04T05:34:04;-9.90;99.90
28677;DHT22;15858;48.338;11.078;2023-12-04T05:36:31;-9.90;99.90
28677;DHT22;15858;48.338;11.078;2023-12-04T05:38:58;-9.80;99.90
28677;DHT22;15858;48.338;11.078;2023-12-04T05:41:27;-9.80;99.90
28677;DHT22;15858;48.338;11.078;2023-12-04T05:43:53;-9.80;99.90
28677;DHT22;15858;48.338;11.078;2023-12-04T05:46:20;-9.70;99.90
28677;DHT22;15858;48.338;11.078;2023-12-04T05:48:48;-9.70;99.90
28677;DHT22;15858;48.338;11.078;2023-12-04T05:51:14;-9.70;99.90
28677;DHT22;15858;48.338;11.078;2023-12-04T05:53:41;-9.80;99.90
28677;DHT22;15858;48.338;11.078;2023-12-04T05:56:08;-9.80;99.90
28677;DHT22;15858;48.338;11.078;2023-12-04T05:58:35;-9.80;99.90
28677;DHT22;15858;48.338;11.078;2023-12-04T06:01:02;-9.80;99.90
28677;DHT22;15858;48.338;11.078;2023-12-04T06:03:29;-9.70;99.90
28677;DHT22;15858;48.338;11.078;2023-12-04T06:05:56;-9.80;99.90
28677;DHT22;15858;48.338;11.078;2023-12-04T06:08:26;-9.80;99.90
28677;DHT22;15858;48.338;11.078;2023-12-04T06:10:52;-10.00;99.90
28677;DHT22;15858;48.338;11.078;2023-12-04T06:13:19;-9.90;99.90
28677;DHT22;15858;48.338;11.078;2023-12-04T06:15:46;-9.90;99.90
28677;DHT22;15858;48.338;11.078;2023-12-04T06:18:12;-9.80;99.90
28677;DHT22;15858;48.338;11.078;2023-12-04T06:20:39;-9.90;99.90
28677;DHT22;15858;48.338;11.078;2023-12-04T06:23:06;-10.20;99.90
28677;DHT22;15858;48.338;11.078;2023-12-04T06:25:33;-10.40;99.90
28677;DHT22;15858;48.338;11.078;2023-12-04T06:28:00;-10.30;99.90
28677;DHT22;15858;48.338;11.078;2023-12-04T06:30:27;-10.20;99.90
28677;DHT22;15858;48.338;11.078;2023-12-04T06:32:54;-10.30;99.90
28677;DHT22;15858;48.338;11.078;2023-12-04T06:35:21;-10.20;99.90
28677;DHT22;15858;48.338;11.078;2023-12-04T06:37:53;-10.10;99.90
28677;DHT22;15858;48.338;11.078;2023-12-04T06:40:21;-10.10;99.90
28677;DHT22;15858;48.338;11.078;2023-12-04T06:42:48;-10.00;99.90
28677;DHT22;15858;48.338;11.078;2023-12-04T06:45:15;-10.00;99.90
28677;DHT22;15858;48.338;11.078;2023-12-04T06:47:43;-10.00;99.90
28677;DHT22;15858;48.338;11.078;2023-12-04T06:50:12;-10.00;99.90
28677;DHT22;15858;48.338;11.078;2023-12-04T06:52:38;-10.10;99.90
28677;DHT22;15858;48.338;11.078;2023-12-04T06:55:05;-10.00;99.90
28677;DHT22;15858;48.338;11.078;2023-12-04T06:57:32;-10.10;99.90
28677;DHT22;15858;48.338;11.078;2023-12-04T06:59:59;-10.10;99.90
28677;DHT22;15858;48.338;11.078;2023-12-04T07:02:26;-10.10;99.90
28677;DHT22;15858;48.338;11.078;2023-12-04T07:04:52;-10.50;99.90
28677;DHT22;15858;48.338;11.078;2023-12-04T07:07:19;-10.70;99.90
28677;DHT22;15858;48.338;11.078;2023-12-04T07:09:46;-10.70;99.90
28677;DHT22;15858;48.338;11.078;2023-12-04T07:12:12;-10.60;99.90
28677;DHT22;15858;48.338;11.078;2023-12-04T07:14:39;-10.50;99.90
28677;DHT22;15858;48.338;11.078;2023-12-04T07:17:06;-10.40;99.90
28677;DHT22;15858;48.338;11.078;2023-12-04T07:19:32;-10.30;99.90
28677;DHT22;15858;48.338;11.078;2023-12-04T07:21:59;-10.20;99.90
28677;DHT22;15858;48.338;11.078;2023-12-04T07:24:26;-10.20;99.90
28677;DHT22;15858;48.338;11.078;2023-12-04T07:26:53;-10.20;99.90
28677;DHT22;15858;48.338;11.078;2023-12-04T07:29:19;-10.10;99.90
28677;DHT22;15858;48.338;11.078;2023-12-04T07:31:46;-10.00;99.90
28677;DHT22;15858;48.338;11.078;2023-12-04T07:34:13;-10.10;99.90
28677;DHT22;15858;48.338;11.078;2023-12-04T07:36:40;-10.00;99.90
28677;DHT22;15858;48.338;11.078;2023-12-04T07:39:06;-9.90;99.90
28677;DHT22;15858;48.338;11.078;2023-12-04T07:41:33;-10.00;99.90
28677;DHT22;15858;48.338;11.078;2023-12-04T07:44:00;-9.90;99.90
28677;DHT22;15858;48.338;11.078;2023-12-04T07:46:26;-9.90;99.90
28677;DHT22;15858;48.338;11.078;2023-12-04T07:48:53;-10.00;99.90
28677;DHT22;15858;48.338;11.078;2023-12-04T07:51:22;-10.00;99.90
28677;DHT22;15858;48.338;11.078;2023-12-04T07:53:49;-10.00;99.90
28677;DHT22;15858;48.338;11.078;2023-12-04T07:56:15;-10.00;99.90
28677;DHT22;15858;48.338;11.078;2023-12-04T07:58:42;-9.80;99.90
28677;DHT22;15858;48.338;11.078;2023-12-04T08:01:09;-9.90;99.90
28677;DHT22;15858;48.338;11.078;2023-12-04T08:03:35;-9.80;99.90
28677;DHT22;15858;48.338;11.078;2023-12-04T08:06:03;-9.70;99.90
28677;DHT22;15858;48.338;11.078;2023-12-04T08:08:29;-9.60;99.90
28677;DHT22;15858;48.338;11.078;2023-12-04T08:10:56;-9.80;99.90
28677;DHT22;15858;48.338;11.078;2023-12-04T08:13:23;-9.80;99.90
28677;DHT22;15858;48.338;11.078;2023-12-04T08:15:49;-9.70;99.90
28677;DHT22;15858;48.338;11.078;2023-12-04T08:18:16;-9.60;99.90
28677;DHT22;15858;48.338;11.078;2023-12-04T08:20:43;-9.50;99.90
28677;DHT22;15858;48.338;11.078;2023-12-04T08:23:09;-9.40;99.90
28677;DHT22;15858;48.338;11.078;2023-12-04T08:25:36;-9.30;99.90
28677;DHT22;15858;48.338;11.078;2023-12-04T08:28:03;-9.30;99.90
28677;DHT22;15858;48.338;11.078;2023-12-04T08:30:30;-9.20;99.90
28677;DHT22;15858;48.338;11.078;2023-12-04T08:32:56;-9.20;99.90
28677;DHT22;15858;48.338;11.078;2023-12-04T08:35:23;-9.10;99.90
28677;DHT22;15858;48.338;11.078;2023-12-04T08:37:50;-9.10;99.90
28677;DHT22;15858;48.338;11.078;2023-12-04T08:40:17;-9.20;99.90
28677;DHT22;15858;48.338;11.078;2023-12-04T08:42:44;-9.30;99.90
28677;DHT22;15858;48.338;11.078;2023-12-04T08:45:10;-9.40;99.90
28677;DHT22;15858;48.338;11.078;2023-12-04T08:47:37;-9.40;99.90
28677;DHT22;15858;48.338;11.078;2023-12-04T08:50:04;-9.30;99.90
28677;DHT22;15858;48.338;11.078;2023-12-04T08:52:31;-9.20;99.90
28677;DHT22;15858;48.338;11.078;2023-12-04T08:54:58;-9.30;99.90
28677;DHT22;15858;48.338;11.078;2023-12-04T08:57:25;-9.10;99.90
28677;DHT22;15858;48.338;11.078;2023-12-04T08:59:52;-9.10;99.90
28677;DHT22;15858;48.338;11.078;2023-12-04T09:02:19;-9.10;99.90
28677;DHT22;15858;48.338;11.078;2023-12-04T09:04:46;-9.00;99.90
28677;DHT22;15858;48.338;11.078;2023-12-04T09:07:13;-8.90;99.90
28677;DHT22;15858;48.338;11.078;2023-12-04T09:09:59;-8.80;99.90
28677;DHT22;15858;48.338;11.078;2023-12-04T09:12:36;-8.70;99.90
28677;DHT22;15858;48.338;11.078;2023-12-04T09:15:04;-8.60;99.90
28677;DHT22;15858;48.338;11.078;2023-12-04T09:17:33;-8.50;99.90
28677;DHT22;15858;48.338;11.078;2023-12-04T09:20:06;-8.50;99.90
28677;DHT22;15858;48.338;11.078;2023-12-04T09:22:33;-8.50;99.90
28677;DHT22;15858;48.338;11.078;2023-12-04T09:25:14;-8.70;99.90
28677;DHT22;15858;48.338;11.078;2023-12-04T09:27:40;-8.60;99.90
28677;DHT22;15858;48.338;11.078;2023-12-04T09:30:07;-8.50;99.90
28677;DHT22;15858;48.338;11.078;2023-12-04T09:32:34;-8.40;99.90
28677;DHT22;15858;48.338;11.078;2023-12-04T09:35:01;-8.30;99.90
28677;DHT22;15858;48.338;11.078;2023-12-04T09:37:28;-8.50;99.90
28677;DHT22;15858;48.338;11.078;2023-12-04T09:39:54;-8.60;99.90
28677;DHT22;15858;48.338;11.078;2023-12-04T09:42:21;-8.50;99.90
28677;DHT22;15858;48.338;11.078;2023-12-04T09:44:48;-8.30;99.90
28677;DHT22;15858;48.338;11.078;2023-12-04T09:47:16;-8.10;99.90
28677;DHT22;15858;48.338;11.078;2023-12-04T09:49:45;-7.90;99.90
28677;DHT22;15858;48.338;11.078;2023-12-04T09:52:12;-7.90;99.90
28677;DHT22;15858;48.338;11.078;2023-12-04T09:54:39;-7.90;99.90
28677;DHT22;15858;48.338;11.078;2023-12-04T09:57:06;-7.80;99.90
28677;DHT22;15858;48.338;11.078;2023-12-04T09:59:33;-7.60;99.90
28677;DHT22;15858;48.338;11.078;2023-12-04T10:02:01;-7.70;99.90
28677;DHT22;15858;48.338;11.078;2023-12-04T10:04:28;-7.50;99.90
28677;DHT22;15858;48.338;11.078;2023-12-04T10:06:54;-7.50;99.90
28677;DHT22;15858;48.338;11.078;2023-12-04T10:09:21;-7.40;99.90
28677;DHT22;15858;48.338;11.078;2023-12-04T10:11:50;-7.40;99.90
28677;DHT22;15858;48.338;11.078;2023-12-04T10:14:18;-7.50;99.90
28677;DHT22;15858;48.338;11.078;2023-12-04T10:16:46;-7.50;99.90
28677;DHT22;15858;48.338;11.078;2023-12-04T10:21:47;-7.40;99.90
28677;DHT22;15858;48.338;11.078;2023-12-04T10:24:27;-7.40;99.90
28677;DHT22;15858;48.338;11.078;2023-12-04T10:26:54;-7.30;99.90
28677;DHT22;15858;48.338;11.078;2023-12-04T10:29:21;-7.10;99.90
28677;DHT22;15858;48.338;11.078;2023-12-04T10:31:50;-6.90;99.90
28677;DHT22;15858;48.338;11.078;2023-12-04T10:34:17;-6.80;99.90
28677;DHT22;15858;48.338;11.078;2023-12-04T10:36:45;-6.80;99.90
28677;DHT22;15858;48.338;11.078;2023-12-04T10:39:12;-6.80;99.90
28677;DHT22;15858;48.338;11.078;2023-12-04T10:41:39;-6.80;99.90
28677;DHT22;15858;48.338;11.078;2023-12-04T10:44:06;-6.70;99.90
28677;DHT22;15858;48.338;11.078;2023-12-04T10:46:37;-6.70;99.90
28677;DHT22;15858;48.338;11.078;2023-12-04T10:49:05;-6.60;99.90
28677;DHT22;15858;48.338;11.078;2023-12-04T10:51:33;-6.50;99.90
28677;DHT22;15858;48.338;11.078;2023-12-04T10:54:00;-6.50;99.90
28677;DHT22;15858;48.338;11.078;2023-12-04T10:56:31;-6.40;99.90
28677;DHT22;15858;48.338;11.078;2023-12-04T10:59:00;-6.40;99.90
28677;DHT22;15858;48.338;11.078;2023-12-04T11:01:27;-6.40;99.90
28677;DHT22;15858;48.338;11.078;2023-12-04T11:03:56;-6.40;99.90
28677;DHT22;15858;48.338;11.078;2023-12-04T11:06:26;-6.30;99.90
28677;DHT22;15858;48.338;11.078;2023-12-04T11:08:56;-6.30;99.90
28677;DHT22;15858;48.338;11.078;2023-12-04T11:11:34;-6.10;99.90
28677;DHT22;15858;48.338;11.078;2023-12-04T11:14:04;-6.00;99.90
28677;DHT22;15858;48.338;11.078;2023-12-04T11:16:42;-6.00;99.90
28677;DHT22;15858;48.338;11.078;2023-12-04T11:19:23;-6.10;99.90
28677;DHT22;15858;48.338;11.078;2023-12-04T11:21:50;-6.10;99.90
28677;DHT22;15858;48.338;11.078;2023-12-04T11:24:18;-6.00;99.90
28677;DHT22;15858;48.338;11.078;2023-12-04T11:26:45;-5.90;99.90
28677;DHT22;15858;48.338;11.078;2023-12-04T11:29:12;-5.80;99.90
28677;DHT22;15858;48.338;11.078;2023-12-04T11:31:39;-5.80;99.90
28677;DHT22;15858;48.338;11.078;2023-12-04T11:34:08;-5.80;99.90
28677;DHT22;15858;48.338;11.078;2023-12-04T11:36:35;-6.00;99.90
28677;DHT22;15858;48.338;11.078;2023-12-04T11:39:02;-6.20;99.90
28677;DHT22;15858;48.338;11.078;2023-12-04T11:41:29;-6.20;99.90
28677;DHT22;15858;48.338;11.078;2023-12-04T11:43:57;-6.30;99.90
28677;DHT22;15858;48.338;11.078;2023-12-04T11:46:26;-6.40;99.90
28677;DHT22;15858;48.338;11.078;2023-12-04T11:49:37;-6.40;99.90
28677;DHT22;15858;48.338;11.078;2023-12-04T11:52:04;-6.30;99.90
28677;DHT22;15858;48.338;11.078;2023-12-04T11:57:27;-6.30;99.90
28677;DHT22;15858;48.338;11.078;2023-12-04T12:00:19;-6.20;99.90
28677;DHT22;15858;48.338;11.078;2023-12-04T12:05:38;-6.00;99.90
28677;DHT22;15858;48.338;11.078;2023-12-04T12:08:06;-6.00;99.90
28677;DHT22;15858;48.338;11.078;2023-12-04T12:10:33;-5.90;99.90
28677;DHT22;15858;48.338;11.078;2023-12-04T12:13:00;-5.90;99.90
28677;DHT22;15858;48.338;11.078;2023-12-04T12:15:27;-5.80;99.90
28677;DHT22;15858;48.338;11.078;2023-12-04T12:17:54;-5.80;99.90
28677;DHT22;15858;48.338;11.078;2023-12-04T12:20:21;-5.80;99.90
28677;DHT22;15858;48.338;11.078;2023-12-04T12:22:48;-5.70;99.90
28677;DHT22;15858;48.338;11.078;2023-12-04T12:25:15;-5.70;99.90
28677;DHT22;15858;48.338;11.078;2023-12-04T12:27:43;-5.70;99.90
28677;DHT22;15858;48.338;11.078;2023-12-04T12:30:10;-5.80;99.90
28677;DHT22;15858;48.338;11.078;2023-12-04T12:32:37;-5.80;99.90
28677;DHT22;15858;48.338;11.078;2023-12-04T12:35:04;-5.90;99.90
28677;DHT22;15858;48.338;11.078;2023-12-04T12:37:30;-5.90;99.90
28677;DHT22;15858;48.338;11.078;2023-12-04T12:39:57;-5.90;99.90
28677;DHT22;15858;48.338;11.078;2023-12-04T12:42:27;-5.70;99.90
28677;DHT22;15858;48.338;11.078;2023-12-04T12:44:55;-5.70;99.90
28677;DHT22;15858;48.338;11.078;2023-12-04T12:47:22;-5.60;99.90
28677;DHT22;15858;48.338;11.078;2023-12-04T12:49:49;-5.50;99.90
28677;DHT22;15858;48.338;11.078;2023-12-04T12:52:16;-5.20;99.90
28677;DHT22;15858;48.338;11.078;2023-12-04T12:54:44;-5.20;99.90
28677;DHT22;15858;48.338;11.078;2023-12-04T12:57:12;-5.10;99.90
28677;DHT22;15858;48.338;11.078;2023-12-04T12:59:39;-5.00;99.90
28677;DHT22;15858;48.338;11.078;2023-12-04T13:02:06;-4.80;99.90
28677;DHT22;15858;48.338;11.078;2023-12-04T13:04:52;-4.80;99.90
28677;DHT22;15858;48.338;11.078;2023-12-04T13:07:20;-4.70;99.90
28677;DHT22;15858;48.338;11.078;2023-12-04T13:09:46;-5.00;99.90
28677;DHT22;15858;48.338;11.078;2023-12-04T13:12:13;-5.20;99.90
28677;DHT22;15858;48.338;11.078;2023-12-04T13:14:40;-5.40;99.90
28677;DHT22;15858;48.338;11.078;2023-12-04T13:17:06;-5.40;99.90
28677;DHT22;15858;48.338;11.078;2023-12-04T13:19:33;-5.40;99.90
28677;DHT22;15858;48.338;11.078;2023-12-04T13:22:00;-5.40;99.90
28677;DHT22;15858;48.338;11.078;2023-12-04T13:24:27;-5.40;99.90
28677;DHT22;15858;48.338;11.078;2023-12-04T13:26:53;-5.30;99.90
28677;DHT22;15858;48.338;11.078;2023-12-04T13:29:20;-5.30;99.90
28677;DHT22;15858;48.338;11.078;2023-12-04T13:31:48;-5.10;99.90
28677;DHT22;15858;48.338;11.078;2023-12-04T13:34:16;-5.00;99.90
28677;DHT22;15858;48.338;11.078;2023-12-04T13:36:43;-4.90;99.90
28677;DHT22;15858;48.338;11.078;2023-12-04T13:39:10;-4.90;99.90
28677;DHT22;15858;48.338;11.078;2023-12-04T13:41:36;-4.80;99.90
28677;DHT22;15858;48.338;11.078;2023-12-04T13:44:03;-4.80;99.90
28677;DHT22;15858;48.338;11.078;2023-12-04T13:46:30;-4.80;99.90
28677;DHT22;15858;48.338;11.078;2023-12-04T13:48:57;-4.70;99.90
28677;DHT22;15858;48.338;11.078;2023-12-04T13:51:24;-4.70;99.90
28677;DHT22;15858;48.338;11.078;2023-12-04T13:53:51;-4.80;99.90
28677;DHT22;15858;48.338;11.078;2023-12-04T13:56:18;-4.70;99.90
28677;DHT22;15858;48.338;11.078;2023-12-04T13:58:45;-4.70;99.90
28677;DHT22;15858;48.338;11.078;2023-12-04T14:01:11;-4.80;99.90
28677;DHT22;15858;48.338;11.078;2023-12-04T14:03:39;-4.80;99.90
28677;DHT22;15858;48.338;11.078;2023-12-04T14:06:06;-4.80;99.90
28677;DHT22;15858;48.338;11.078;2023-12-04T14:08:33;-4.80;99.90
28677;DHT22;15858;48.338;11.078;2023-12-04T14:11:04;-4.70;99.90
28677;DHT22;15858;48.338;11.078;2023-12-04T14:13:32;-4.60;99.90
28677;DHT22;15858;48.338;11.078;2023-12-04T14:15:59;-4.60;99.90
28677;DHT22;15858;48.338;11.078;2023-12-04T14:18:26;-4.60;99.90
28677;DHT22;15858;48.338;11.078;2023-12-04T14:20:53;-4.50;99.90
28677;DHT22;15858;48.338;11.078;2023-12-04T14:23:19;-4.50;99.90
28677;DHT22;15858;48.338;11.078;2023-12-04T14:25:47;-4.60;99.90
28677;DHT22;15858;48.338;11.078;2023-12-04T14:28:14;-4.70;99.90
28677;DHT22;15858;48.338;11.078;2023-12-04T14:30:46;-4.70;99.90
28677;DHT22;15858;48.338;11.078;2023-12-04T14:33:13;-4.70;99.90
28677;DHT22;15858;48.338;11.078;2023-12-04T14:35:40;-4.70;99.90
28677;DHT22;15858;48.338;11.078;2023-12-04T14:38:06;-4.70;99.90
28677;DHT22;15858;48.338;11.078;2023-12-04T14:40:33;-4.70;99.90
28677;DHT22;15858;48.338;11.078;2023-12-04T14:43:00;-4.70;99.90
28677;DHT22;15858;48.338;11.078;2023-12-04T14:45:26;-4.80;99.90
28677;DHT22;15858;48.338;11.078;2023-12-04T14:47:53;-4.90;99.90
28677;DHT22;15858;48.338;11.078;2023-12-04T14:50:20;-4.90;99.90
28677;DHT22;15858;48.338;11.078;2023-12-04T14:52:47;-5.00;99.90
28677;DHT22;15858;48.338;11.078;2023-12-04T14:55:13;-4.90;99.90
28677;DHT22;15858;48.338;11.078;2023-12-04T14:57:40;-5.00;99.90
28677;DHT22;15858;48.338;11.078;2023-12-04T15:00:07;-4.90;99.90
28677;DHT22;15858;48.338;11.078;2023-12-04T15:02:35;-4.90;99.90
28677;DHT22;15858;48.338;11.078;2023-12-04T15:05:02;-4.80;99.90
28677;DHT22;15858;48.338;11.078;2023-12-04T15:07:29;-4.80;99.90
28677;DHT22;15858;48.338;11.078;2023-12-04T15:09:56;-4.90;99.90
28677;DHT22;15858;48.338;11.078;2023-12-04T15:12:23;-4.90;99.90
28677;DHT22;15858;48.338;11.078;2023-12-04T15:14:49;-4.80;99.90
28677;DHT22;15858;48.338;11.078;2023-12-04T15:17:16;-4.70;99.90
28677;DHT22;15858;48.338;11.078;2023-12-04T15:19:43;-4.70;99.90
28677;DHT22;15858;48.338;11.078;2023-12-04T15:22:09;-4.60;99.90
28677;DHT22;15858;48.338;11.078;2023-12-04T15:24:36;-4.70;99.90